sensor_id;sensor_type;location;lat;lon;timestamp;temperature;humidity
2439;DHT22;14509;47.992;7.848;2023-04-15T00:01:19;10.40;44.30
2439;DHT22;14509;47.992;7.848;2023-04-15T00:03:22;10.30;44.50
2439;DHT22;14509;47.992;7.848;2023-04-15T00:05:24;10.30;44.50
2439;DHT22;14509;47.992;7.848;2023-04-15T00:07:26;11.60;45.40
2439;DHT22;14509;47.992;7.848;2023-04-15T00:09:30;10.40;44.50
2439;DHT22;14509;47.992;7.848;2023-04-15T00:11:32;10.40;44.20
2439;DHT22;14509;47.992;7.848;2023-04-15T00:13:34;10.40;44.10
2439;DHT22;14509;47.992;7.848;2023-04-15T00:15:36;10.40;44.00
2439;DHT22;14509;47.992;7.848;2023-04-15T00:17:38;10.40;44.20
2439;DHT22;14509;47.992;7.848;2023-04-15T00:19:40;10.30;44.10
2439;DHT22;14509;47.992;7.848;2023-04-15T00:21:43;10.30;44.20
2439;DHT22;14509;47.992;7.848;2023-04-15T00:23:45;10.30;44.00
2439;DHT22;14509;47.992;7.848;2023-04-15T00:25:53;10.90;44.60
2439;DHT22;14509;47.992;7.848;2023-04-15T00:27:55;10.40;44.10
2439;DHT22;14509;47.992;7.848;2023-04-15T00:29:57;11.00;44.30
2439;DHT22;14509;47.992;7.848;2023-04-15T00:31:59;10.40;43.90
2439;DHT22;14509;47.992;7.848;2023-04-15T00:34:01;10.40;43.80
2439;DHT22;14509;47.992;7.848;2023-04-15T00:36:04;10.50;43.80
2439;DHT22;14509;47.992;7.848;2023-04-15T00:38:06;10.60;43.60
2439;DHT22;14509;47.992;7.848;2023-04-15T00:40:11;10.70;43.40
2439;DHT22;14509;47.992;7.848;2023-04-15T00:42:15;10.60;43.30
2439;DHT22;14509;47.992;7.848;2023-04-15T00:44:17;10.90;43.40
2439;DHT22;14509;47.992;7.848;2023-04-15T00:46:20;10.80;43.10
2439;DHT22;14509;47.992;7.848;2023-04-15T00:48:23;11.40;43.50
2439;DHT22;14509;47.992;7.848;2023-04-15T00:50:26;10.80;42.60
2439;DHT22;14509;47.992;7.848;2023-04-15T00:52:28;10.80;42.50
2439;DHT22;14509;47.992;7.848;2023-04-15T00:54:31;10.80;42.60
2439;DHT22;14509;47.992;7.848;2023-04-15T00:56:34;10.90;42.60
2439;DHT22;14509;47.992;7.848;2023-04-15T00:58:39;10.90;42.40
2439;DHT22;14509;47.992;7.848;2023-04-15T01:00:42;11.00;42.30
2439;DHT22;14509;47.992;7.848;2023-04-15T01:02:44;11.00;42.20
2439;DHT22;14509;47.992;7.848;2023-04-15T01:04:46;11.70;42.70
2439;DHT22;14509;47.992;7.848;2023-04-15T01:06:48;11.00;42.30
2439;DHT22;14509;47.992;7.848;2023-04-15T01:08:50;11.70;42.70
2439;DHT22;14509;47.992;7.848;2023-04-15T01:10:53;11.10;42.00
2439;DHT22;14509;47.992;7.848;2023-04-15T01:12:55;11.10;42.00
2439;DHT22;14509;47.992;7.848;2023-04-15T01:15:01;11.10;41.80
2439;DHT22;14509;47.992;7.848;2023-04-15T01:17:03;11.10;41.50
2439;DHT22;14509;47.992;7.848;2023-04-15T01:19:05;11.90;42.30
2439;DHT22;14509;47.992;7.848;2023-04-15T01:21:09;11.00;41.90
2439;DHT22;14509;47.992;7.848;2023-04-15T01:23:11;11.00;41.80
2439;DHT22;14509;47.992;7.848;2023-04-15T01:25:17;10.90;42.20
2439;DHT22;14509;47.992;7.848;2023-04-15T01:27:21;10.80;42.10
2439;DHT22;14509;47.992;7.848;2023-04-15T01:29:23;10.70;42.10
2439;DHT22;14509;47.992;7.848;2023-04-15T01:31:25;10.70;42.40
2439;DHT22;14509;47.992;7.848;2023-04-15T01:33:27;10.50;42.50
2439;DHT22;14509;47.992;7.848;2023-04-15T01:35:29;10.50;42.60
2439;DHT22;14509;47.992;7.848;2023-04-15T01:37:31;10.70;42.90
2439;DHT22;14509;47.992;7.848;2023-04-15T01:39:34;10.50;42.90
2439;DHT22;14509;47.992;7.848;2023-04-15T01:41:36;10.50;42.80
2439;DHT22;14509;47.992;7.848;2023-04-15T01:43:39;10.50;42.70
2439;DHT22;14509;47.992;7.848;2023-04-15T01:45:43;10.50;42.40
2439;DHT22;14509;47.992;7.848;2023-04-15T01:47:45;10.60;42.70
2439;DHT22;14509;47.992;7.848;2023-04-15T01:49:47;10.60;42.60
2439;DHT22;14509;47.992;7.848;2023-04-15T01:51:49;10.70;42.50
2439;DHT22;14509;47.992;7.848;2023-04-15T01:53:51;10.80;42.30
2439;DHT22;14509;47.992;7.848;2023-04-15T01:55:53;10.80;42.20
2439;DHT22;14509;47.992;7.848;2023-04-15T01:57:55;11.20;42.50
2439;DHT22;14509;47.992;7.848;2023-04-15T01:59:58;10.80;41.90
2439;DHT22;14509;47.992;7.848;2023-04-15T02:02:00;10.90;42.50
2439;DHT22;14509;47.992;7.848;2023-04-15T02:04:02;11.20;42.10
2439;DHT22;14509;47.992;7.848;2023-04-15T02:06:05;10.80;41.90
2439;DHT22;14509;47.992;7.848;2023-04-15T02:08:08;10.80;41.70
2439;DHT22;14509;47.992;7.848;2023-04-15T02:10:12;10.70;41.60
2439;DHT22;14509;47.992;7.848;2023-04-15T02:12:14;10.70;41.70
2439;DHT22;14509;47.992;7.848;2023-04-15T02:14:16;10.80;41.70
2439;DHT22;14509;47.992;7.848;2023-04-15T02:16:19;11.00;41.60
2439;DHT22;14509;47.992;7.848;2023-04-15T02:18:22;11.00;41.30
2439;DHT22;14509;47.992;7.848;2023-04-15T02:20:24;11.00;41.40
2439;DHT22;14509;47.992;7.848;2023-04-15T02:22:25;11.00;41.30
2439;DHT22;14509;47.992;7.848;2023-04-15T02:24:29;11.10;41.30
2439;DHT22;14509;47.992;7.848;2023-04-15T02:26:31;11.20;41.40
2439;DHT22;14509;47.992;7.848;2023-04-15T02:28:33;11.20;41.30
2439;DHT22;14509;47.992;7.848;2023-04-15T02:30:35;11.20;41.50
2439;DHT22;14509;47.992;7.848;2023-04-15T02:32:39;11.20;41.30
2439;DHT22;14509;47.992;7.848;2023-04-15T02:34:44;11.30;41.20
2439;DHT22;14509;47.992;7.848;2023-04-15T02:36:46;11.40;41.30
2439;DHT22;14509;47.992;7.848;2023-04-15T02:38:49;11.50;41.00
2439;DHT22;14509;47.992;7.848;2023-04-15T02:40:51;11.50;41.00
2439;DHT22;14509;47.992;7.848;2023-04-15T02:42:53;11.70;40.80
2439;DHT22;14509;47.992;7.848;2023-04-15T02:44:55;11.60;40.50
2439;DHT22;14509;47.992;7.848;2023-04-15T02:47:03;11.60;40.50
2439;DHT22;14509;47.992;7.848;2023-04-15T02:49:08;11.70;40.60
2439;DHT22;14509;47.992;7.848;2023-04-15T02:51:14;11.70;40.60
2439;DHT22;14509;47.992;7.848;2023-04-15T02:53:16;11.70;40.90
2439;DHT22;14509;47.992;7.848;2023-04-15T02:55:19;11.70;40.70
2439;DHT22;14509;47.992;7.848;2023-04-15T02:57:22;11.60;40.70
2439;DHT22;14509;47.992;7.848;2023-04-15T02:59:24;11.50;40.70
2439;DHT22;14509;47.992;7.848;2023-04-15T03:01:26;11.40;40.70
2439;DHT22;14509;47.992;7.848;2023-04-15T03:03:28;11.50;40.90
2439;DHT22;14509;47.992;7.848;2023-04-15T03:05:31;11.50;40.90
2439;DHT22;14509;47.992;7.848;2023-04-15T03:07:35;11.40;40.90
2439;DHT22;14509;47.992;7.848;2023-04-15T03:09:37;11.80;41.20
2439;DHT22;14509;47.992;7.848;2023-04-15T03:11:40;11.90;41.40
2439;DHT22;14509;47.992;7.848;2023-04-15T03:13:44;11.40;41.20
2439;DHT22;14509;47.992;7.848;2023-04-15T03:15:59;12.20;41.60
2439;DHT22;14509;47.992;7.848;2023-04-15T03:18:01;11.50;41.00
2439;DHT22;14509;47.992;7.848;2023-04-15T03:20:04;11.70;41.00
2439;DHT22;14509;47.992;7.848;2023-04-15T03:22:08;11.60;40.80
2439;DHT22;14509;47.992;7.848;2023-04-15T03:24:11;11.60;40.90
2439;DHT22;14509;47.992;7.848;2023-04-15T03:26:23;11.70;40.90
2439;DHT22;14509;47.992;7.848;2023-04-15T03:28:25;11.70;40.90
2439;DHT22;14509;47.992;7.848;2023-04-15T03:30:29;11.90;41.60
2439;DHT22;14509;47.992;7.848;2023-04-15T03:32:31;11.70;40.90
2439;DHT22;14509;47.992;7.848;2023-04-15T03:34:33;11.70;40.80
2439;DHT22;14509;47.992;7.848;2023-04-15T03:36:35;11.70;40.70
2439;DHT22;14509;47.992;7.848;2023-04-15T03:38:38;11.70;41.20
2439;DHT22;14509;47.992;7.848;2023-04-15T03:40:40;11.90;40.80
2439;DHT22;14509;47.992;7.848;2023-04-15T03:42:42;11.70;40.80
2439;DHT22;14509;47.992;7.848;2023-04-15T03:44:44;11.80;41.00
2439;DHT22;14509;47.992;7.848;2023-04-15T03:46:45;11.70;41.20
2439;DHT22;14509;47.992;7.848;2023-04-15T03:48:47;12.00;41.40
2439;DHT22;14509;47.992;7.848;2023-04-15T03:50:49;11.80;41.00
2439;DHT22;14509;47.992;7.848;2023-04-15T03:52:51;12.30;41.20
2439;DHT22;14509;47.992;7.848;2023-04-15T03:54:54;11.80;40.80
2439;DHT22;14509;47.992;7.848;2023-04-15T03:56:56;11.90;41.00
2439;DHT22;14509;47.992;7.848;2023-04-15T03:58:58;12.00;40.90
2439;DHT22;14509;47.992;7.848;2023-04-15T04:01:00;12.00;40.80
2439;DHT22;14509;47.992;7.848;2023-04-15T04:03:02;12.00;40.70
2439;DHT22;14509;47.992;7.848;2023-04-15T04:05:04;11.90;40.70
2439;DHT22;14509;47.992;7.848;2023-04-15T04:07:06;11.90;41.00
2439;DHT22;14509;47.992;7.848;2023-04-15T04:09:08;11.90;41.20
2439;DHT22;14509;47.992;7.848;2023-04-15T04:11:11;11.90;41.30
2439;DHT22;14509;47.992;7.848;2023-04-15T04:13:13;11.90;41.30
2439;DHT22;14509;47.992;7.848;2023-04-15T04:15:15;11.90;41.20
2439;DHT22;14509;47.992;7.848;2023-04-15T04:17:17;12.00;41.30
2439;DHT22;14509;47.992;7.848;2023-04-15T04:19:19;11.90;41.20
2439;DHT22;14509;47.992;7.848;2023-04-15T04:21:21;12.60;42.00
2439;DHT22;14509;47.992;7.848;2023-04-15T04:23:23;12.00;41.50
2439;DHT22;14509;47.992;7.848;2023-04-15T04:25:25;12.00;41.50
2439;DHT22;14509;47.992;7.848;2023-04-15T04:27:28;12.00;41.70
2439;DHT22;14509;47.992;7.848;2023-04-15T04:29:30;12.00;41.70
2439;DHT22;14509;47.992;7.848;2023-04-15T04:31:32;12.00;41.60
2439;DHT22;14509;47.992;7.848;2023-04-15T04:33:34;12.10;41.70
2439;DHT22;14509;47.992;7.848;2023-04-15T04:35:35;12.00;41.60
2439;DHT22;14509;47.992;7.848;2023-04-15T04:37:37;12.80;42.30
2439;DHT22;14509;47.992;7.848;2023-04-15T04:39:40;12.00;41.70
2439;DHT22;14509;47.992;7.848;2023-04-15T04:41:41;12.10;41.80
2439;DHT22;14509;47.992;7.848;2023-04-15T04:43:45;12.00;41.70
2439;DHT22;14509;47.992;7.848;2023-04-15T04:45:46;12.10;41.90
2439;DHT22;14509;47.992;7.848;2023-04-15T04:47:48;12.10;41.90
2439;DHT22;14509;47.992;7.848;2023-04-15T04:49:50;12.10;41.90
2439;DHT22;14509;47.992;7.848;2023-04-15T04:51:52;12.10;41.80
2439;DHT22;14509;47.992;7.848;2023-04-15T04:53:54;12.10;41.80
2439;DHT22;14509;47.992;7.848;2023-04-15T04:55:56;12.10;41.80
2439;DHT22;14509;47.992;7.848;2023-04-15T04:57:58;12.10;41.90
2439;DHT22;14509;47.992;7.848;2023-04-15T05:00:02;12.00;41.80
2439;DHT22;14509;47.992;7.848;2023-04-15T05:02:04;12.20;41.90
2439;DHT22;14509;47.992;7.848;2023-04-15T05:04:07;12.10;41.60
2439;DHT22;14509;47.992;7.848;2023-04-15T05:06:09;12.20;41.80
2439;DHT22;14509;47.992;7.848;2023-04-15T05:08:11;12.70;42.00
2439;DHT22;14509;47.992;7.848;2023-04-15T05:10:13;12.30;41.40
2439;DHT22;14509;47.992;7.848;2023-04-15T05:12:17;12.30;41.30
2439;DHT22;14509;47.992;7.848;2023-04-15T05:14:19;12.40;41.20
2439;DHT22;14509;47.992;7.848;2023-04-15T05:16:22;12.50;41.30
2439;DHT22;14509;47.992;7.848;2023-04-15T05:18:25;12.50;41.30
2439;DHT22;14509;47.992;7.848;2023-04-15T05:20:27;12.60;41.20
2439;DHT22;14509;47.992;7.848;2023-04-15T05:22:29;12.70;41.10
2439;DHT22;14509;47.992;7.848;2023-04-15T05:24:31;12.70;40.70
2439;DHT22;14509;47.992;7.848;2023-04-15T05:26:33;12.80;40.40
2439;DHT22;14509;47.992;7.848;2023-04-15T05:28:35;12.80;41.10
2439;DHT22;14509;47.992;7.848;2023-04-15T05:30:36;12.80;40.60
2439;DHT22;14509;47.992;7.848;2023-04-15T05:32:40;12.80;41.40
2439;DHT22;14509;47.992;7.848;2023-04-15T05:34:42;12.90;40.70
2439;DHT22;14509;47.992;7.848;2023-04-15T05:36:44;13.10;41.40
2439;DHT22;14509;47.992;7.848;2023-04-15T05:38:46;12.90;41.40
2439;DHT22;14509;47.992;7.848;2023-04-15T05:40:47;13.00;41.50
2439;DHT22;14509;47.992;7.848;2023-04-15T05:42:49;13.00;41.40
2439;DHT22;14509;47.992;7.848;2023-04-15T05:44:51;13.10;41.50
2439;DHT22;14509;47.992;7.848;2023-04-15T05:46:53;13.10;41.30
2439;DHT22;14509;47.992;7.848;2023-04-15T05:48:56;13.20;41.40
2439;DHT22;14509;47.992;7.848;2023-04-15T05:50:58;13.30;41.60
2439;DHT22;14509;47.992;7.848;2023-04-15T05:53:00;13.30;41.60
2439;DHT22;14509;47.992;7.848;2023-04-15T05:55:02;13.40;41.50
2439;DHT22;14509;47.992;7.848;2023-04-15T05:57:04;13.40;41.40
2439;DHT22;14509;47.992;7.848;2023-04-15T05:59:07;13.50;41.80
2439;DHT22;14509;47.992;7.848;2023-04-15T06:01:09;13.60;41.00
2439;DHT22;14509;47.992;7.848;2023-04-15T06:03:11;13.70;40.70
2439;DHT22;14509;47.992;7.848;2023-04-15T06:05:14;13.80;40.20
2439;DHT22;14509;47.992;7.848;2023-04-15T06:07:16;13.90;40.00
2439;DHT22;14509;47.992;7.848;2023-04-15T06:09:18;14.10;40.00
2439;DHT22;14509;47.992;7.848;2023-04-15T06:11:20;14.20;39.80
2439;DHT22;14509;47.992;7.848;2023-04-15T06:13:22;14.40;39.60
2439;DHT22;14509;47.992;7.848;2023-04-15T06:15:24;14.60;39.30
2439;DHT22;14509;47.992;7.848;2023-04-15T06:17:26;14.70;38.90
2439;DHT22;14509;47.992;7.848;2023-04-15T06:19:28;14.80;38.50
2439;DHT22;14509;47.992;7.848;2023-04-15T06:21:32;15.00;38.40
2439;DHT22;14509;47.992;7.848;2023-04-15T06:23:34;15.00;38.30
2439;DHT22;14509;47.992;7.848;2023-04-15T06:25:37;15.10;38.00
2439;DHT22;14509;47.992;7.848;2023-04-15T06:27:38;15.30;37.80
2439;DHT22;14509;47.992;7.848;2023-04-15T06:29:40;15.30;37.50
2439;DHT22;14509;47.992;7.848;2023-04-15T06:31:42;15.60;37.60
2439;DHT22;14509;47.992;7.848;2023-04-15T06:33:44;15.40;37.00
2439;DHT22;14509;47.992;7.848;2023-04-15T06:35:46;15.60;37.10
2439;DHT22;14509;47.992;7.848;2023-04-15T06:37:50;15.60;36.90
2439;DHT22;14509;47.992;7.848;2023-04-15T06:39:52;15.70;37.00
2439;DHT22;14509;47.992;7.848;2023-04-15T06:41:54;15.80;37.00
2439;DHT22;14509;47.992;7.848;2023-04-15T06:43:56;15.80;36.80
2439;DHT22;14509;47.992;7.848;2023-04-15T06:45:58;15.80;36.70
2439;DHT22;14509;47.992;7.848;2023-04-15T06:48:00;15.90;36.70
2439;DHT22;14509;47.992;7.848;2023-04-15T06:50:02;16.00;36.60
2439;DHT22;14509;47.992;7.848;2023-04-15T06:52:05;16.00;36.30
2439;DHT22;14509;47.992;7.848;2023-04-15T06:54:08;16.10;36.10
2439;DHT22;14509;47.992;7.848;2023-04-15T06:56:10;16.20;36.00
2439;DHT22;14509;47.992;7.848;2023-04-15T06:58:12;16.40;35.90
2439;DHT22;14509;47.992;7.848;2023-04-15T07:00:14;16.40;35.80
2439;DHT22;14509;47.992;7.848;2023-04-15T07:02:17;16.50;35.80
2439;DHT22;14509;47.992;7.848;2023-04-15T07:04:19;16.70;35.80
2439;DHT22;14509;47.992;7.848;2023-04-15T07:06:21;16.70;35.70
2439;DHT22;14509;47.992;7.848;2023-04-15T07:08:22;16.80;35.60
2439;DHT22;14509;47.992;7.848;2023-04-15T07:10:26;16.90;35.90
2439;DHT22;14509;47.992;7.848;2023-04-15T07:12:28;17.00;36.10
2439;DHT22;14509;47.992;7.848;2023-04-15T07:14:30;17.00;36.30
2439;DHT22;14509;47.992;7.848;2023-04-15T07:16:32;17.10;36.40
2439;DHT22;14509;47.992;7.848;2023-04-15T07:18:34;17.10;36.30
2439;DHT22;14509;47.992;7.848;2023-04-15T07:20:36;17.20;36.50
2439;DHT22;14509;47.992;7.848;2023-04-15T07:22:38;17.20;36.50
2439;DHT22;14509;47.992;7.848;2023-04-15T07:24:40;17.30;36.40
2439;DHT22;14509;47.992;7.848;2023-04-15T07:26:43;17.40;36.40
2439;DHT22;14509;47.992;7.848;2023-04-15T07:28:45;17.40;36.20
2439;DHT22;14509;47.992;7.848;2023-04-15T07:30:47;17.50;36.20
2439;DHT22;14509;47.992;7.848;2023-04-15T07:32:49;17.60;36.20
2439;DHT22;14509;47.992;7.848;2023-04-15T07:34:51;17.60;36.30
2439;DHT22;14509;47.992;7.848;2023-04-15T07:36:53;18.00;36.60
2439;DHT22;14509;47.992;7.848;2023-04-15T07:38:55;17.80;36.40
2439;DHT22;14509;47.992;7.848;2023-04-15T07:40:57;17.80;36.20
2439;DHT22;14509;47.992;7.848;2023-04-15T07:43:00;18.00;36.30
2439;DHT22;14509;47.992;7.848;2023-04-15T07:45:03;18.20;36.40
2439;DHT22;14509;47.992;7.848;2023-04-15T07:47:05;18.30;36.40
2439;DHT22;14509;47.992;7.848;2023-04-15T07:49:07;18.40;36.20
2439;DHT22;14509;47.992;7.848;2023-04-15T07:51:09;18.70;36.30
2439;DHT22;14509;47.992;7.848;2023-04-15T07:53:12;18.50;36.00
2439;DHT22;14509;47.992;7.848;2023-04-15T07:55:15;18.50;36.00
2439;DHT22;14509;47.992;7.848;2023-04-15T07:57:19;18.70;36.20
2439;DHT22;14509;47.992;7.848;2023-04-15T07:59:22;18.80;36.10
2439;DHT22;14509;47.992;7.848;2023-04-15T08:01:24;18.90;36.20
2439;DHT22;14509;47.992;7.848;2023-04-15T08:03:27;18.90;35.70
2439;DHT22;14509;47.992;7.848;2023-04-15T08:05:29;19.00;35.70
2439;DHT22;14509;47.992;7.848;2023-04-15T08:07:31;18.90;35.70
2439;DHT22;14509;47.992;7.848;2023-04-15T08:09:33;19.10;35.70
2439;DHT22;14509;47.992;7.848;2023-04-15T08:11:35;19.10;35.40
2439;DHT22;14509;47.992;7.848;2023-04-15T08:13:37;19.00;35.40
2439;DHT22;14509;47.992;7.848;2023-04-15T08:15:41;19.00;35.70
2439;DHT22;14509;47.992;7.848;2023-04-15T08:17:43;19.00;35.90
2439;DHT22;14509;47.992;7.848;2023-04-15T08:19:44;18.80;35.80
2439;DHT22;14509;47.992;7.848;2023-04-15T08:21:47;19.00;36.80
2439;DHT22;14509;47.992;7.848;2023-04-15T08:23:51;19.10;36.20
2439;DHT22;14509;47.992;7.848;2023-04-15T08:25:53;19.00;36.10
2439;DHT22;14509;47.992;7.848;2023-04-15T08:27:55;19.00;36.10
2439;DHT22;14509;47.992;7.848;2023-04-15T08:29:57;19.00;36.10
2439;DHT22;14509;47.992;7.848;2023-04-15T08:32:01;18.90;36.00
2439;DHT22;14509;47.992;7.848;2023-04-15T08:34:03;18.90;36.10
2439;DHT22;14509;47.992;7.848;2023-04-15T08:36:06;18.80;36.10
2439;DHT22;14509;47.992;7.848;2023-04-15T08:38:08;18.80;36.40
2439;DHT22;14509;47.992;7.848;2023-04-15T08:40:10;18.70;36.40
2439;DHT22;14509;47.992;7.848;2023-04-15T08:42:16;18.70;36.60
2439;DHT22;14509;47.992;7.848;2023-04-15T08:44:18;18.80;36.50
2439;DHT22;14509;47.992;7.848;2023-04-15T08:46:22;19.00;36.20
2439;DHT22;14509;47.992;7.848;2023-04-15T08:48:28;19.10;35.80
2439;DHT22;14509;47.992;7.848;2023-04-15T08:50:31;19.20;35.40
2439;DHT22;14509;47.992;7.848;2023-04-15T08:52:33;19.30;35.50
2439;DHT22;14509;47.992;7.848;2023-04-15T08:54:35;19.40;35.40
2439;DHT22;14509;47.992;7.848;2023-04-15T08:56:47;19.50;35.10
2439;DHT22;14509;47.992;7.848;2023-04-15T08:58:52;19.70;34.70
2439;DHT22;14509;47.992;7.848;2023-04-15T09:00:55;19.90;34.70
2439;DHT22;14509;47.992;7.848;2023-04-15T09:03:00;19.90;34.50
2439;DHT22;14509;47.992;7.848;2023-04-15T09:05:20;19.70;33.80
2439;DHT22;14509;47.992;7.848;2023-04-15T09:07:26;20.20;33.50
2439;DHT22;14509;47.992;7.848;2023-04-15T09:09:31;20.40;33.80
2439;DHT22;14509;47.992;7.848;2023-04-15T09:11:46;20.50;33.40
2439;DHT22;14509;47.992;7.848;2023-04-15T09:13:52;20.60;33.60
2439;DHT22;14509;47.992;7.848;2023-04-15T09:15:54;20.60;33.20
2439;DHT22;14509;47.992;7.848;2023-04-15T09:17:57;20.60;33.30
2439;DHT22;14509;47.992;7.848;2023-04-15T09:20:19;20.60;33.10
2439;DHT22;14509;47.992;7.848;2023-04-15T09:22:31;20.60;33.00
2439;DHT22;14509;47.992;7.848;2023-04-15T09:24:35;20.60;32.70
2439;DHT22;14509;47.992;7.848;2023-04-15T09:26:38;20.70;32.80
2439;DHT22;14509;47.992;7.848;2023-04-15T09:28:41;20.70;32.60
2439;DHT22;14509;47.992;7.848;2023-04-15T09:31:02;20.70;32.60
2439;DHT22;14509;47.992;7.848;2023-04-15T09:33:04;20.80;32.70
2439;DHT22;14509;47.992;7.848;2023-04-15T09:35:10;21.10;32.70
2439;DHT22;14509;47.992;7.848;2023-04-15T09:37:15;20.90;32.30
2439;DHT22;14509;47.992;7.848;2023-04-15T09:39:20;21.00;32.30
2439;DHT22;14509;47.992;7.848;2023-04-15T09:41:22;21.00;32.30
2439;DHT22;14509;47.992;7.848;2023-04-15T09:43:37;21.00;32.40
2439;DHT22;14509;47.992;7.848;2023-04-15T09:45:47;21.10;32.60
2439;DHT22;14509;47.992;7.848;2023-04-15T09:47:49;21.10;32.10
2439;DHT22;14509;47.992;7.848;2023-04-15T09:49:54;21.20;31.60
2439;DHT22;14509;47.992;7.848;2023-04-15T09:51:58;21.20;31.50
2439;DHT22;14509;47.992;7.848;2023-04-15T09:54:02;21.10;31.70
2439;DHT22;14509;47.992;7.848;2023-04-15T09:56:04;21.20;31.70
2439;DHT22;14509;47.992;7.848;2023-04-15T09:58:08;21.20;31.70
2439;DHT22;14509;47.992;7.848;2023-04-15T10:00:12;21.20;31.60
2439;DHT22;14509;47.992;7.848;2023-04-15T10:02:15;21.20;31.90
2439;DHT22;14509;47.992;7.848;2023-04-15T10:04:18;21.10;31.80
2439;DHT22;14509;47.992;7.848;2023-04-15T10:06:21;21.10;31.70
2439;DHT22;14509;47.992;7.848;2023-04-15T10:08:29;21.20;31.80
2439;DHT22;14509;47.992;7.848;2023-04-15T10:10:33;21.20;31.40
2439;DHT22;14509;47.992;7.848;2023-04-15T10:12:36;21.30;31.70
2439;DHT22;14509;47.992;7.848;2023-04-15T10:14:39;21.50;32.00
2439;DHT22;14509;47.992;7.848;2023-04-15T10:16:44;21.60;31.60
2439;DHT22;14509;47.992;7.848;2023-04-15T10:18:54;21.70;31.60
2439;DHT22;14509;47.992;7.848;2023-04-15T10:20:56;21.90;30.90
2439;DHT22;14509;47.992;7.848;2023-04-15T10:23:01;22.00;30.10
2439;DHT22;14509;47.992;7.848;2023-04-15T10:25:05;21.90;30.00
2439;DHT22;14509;47.992;7.848;2023-04-15T10:27:09;21.80;29.90
2439;DHT22;14509;47.992;7.848;2023-04-15T10:29:11;21.70;30.30
2439;DHT22;14509;47.992;7.848;2023-04-15T10:31:13;21.60;30.80
2439;DHT22;14509;47.992;7.848;2023-04-15T10:33:19;21.50;31.00
2439;DHT22;14509;47.992;7.848;2023-04-15T10:35:22;21.30;31.40
2439;DHT22;14509;47.992;7.848;2023-04-15T10:37:34;21.20;31.80
2439;DHT22;14509;47.992;7.848;2023-04-15T10:39:40;21.20;31.70
2439;DHT22;14509;47.992;7.848;2023-04-15T10:41:43;21.10;32.00
2439;DHT22;14509;47.992;7.848;2023-04-15T10:43:52;20.90;31.90
2439;DHT22;14509;47.992;7.848;2023-04-15T10:45:54;21.00;32.20
2439;DHT22;14509;47.992;7.848;2023-04-15T10:47:56;20.80;32.10
2439;DHT22;14509;47.992;7.848;2023-04-15T10:50:00;20.70;32.60
2439;DHT22;14509;47.992;7.848;2023-04-15T10:52:03;20.70;32.40
2439;DHT22;14509;47.992;7.848;2023-04-15T10:54:08;20.70;32.50
2439;DHT22;14509;47.992;7.848;2023-04-15T10:56:16;20.70;32.50
2439;DHT22;14509;47.992;7.848;2023-04-15T10:58:18;20.80;32.50
2439;DHT22;14509;47.992;7.848;2023-04-15T11:00:26;20.80;32.70
2439;DHT22;14509;47.992;7.848;2023-04-15T11:02:47;20.90;32.50
2439;DHT22;14509;47.992;7.848;2023-04-15T11:04:53;21.00;32.40
2439;DHT22;14509;47.992;7.848;2023-04-15T11:07:05;21.00;32.20
2439;DHT22;14509;47.992;7.848;2023-04-15T11:09:07;21.10;32.20
2439;DHT22;14509;47.992;7.848;2023-04-15T11:11:09;21.40;32.00
2439;DHT22;14509;47.992;7.848;2023-04-15T11:13:15;21.70;31.70
2439;DHT22;14509;47.992;7.848;2023-04-15T11:15:27;21.90;31.10
2439;DHT22;14509;47.992;7.848;2023-04-15T11:17:30;22.20;30.70
2439;DHT22;14509;47.992;7.848;2023-04-15T11:19:36;22.50;30.40
2439;DHT22;14509;47.992;7.848;2023-04-15T11:21:38;22.60;30.00
2439;DHT22;14509;47.992;7.848;2023-04-15T11:23:41;22.60;30.30
2439;DHT22;14509;47.992;7.848;2023-04-15T11:25:46;22.70;31.10
2439;DHT22;14509;47.992;7.848;2023-04-15T11:27:48;22.70;30.10
2439;DHT22;14509;47.992;7.848;2023-04-15T11:29:50;22.70;29.90
2439;DHT22;14509;47.992;7.848;2023-04-15T11:32:03;22.50;30.00
2439;DHT22;14509;47.992;7.848;2023-04-15T11:34:05;22.50;30.20
2439;DHT22;14509;47.992;7.848;2023-04-15T11:36:09;22.30;30.00
2439;DHT22;14509;47.992;7.848;2023-04-15T11:38:13;22.10;30.30
2439;DHT22;14509;47.992;7.848;2023-04-15T11:40:16;22.00;30.40
2439;DHT22;14509;47.992;7.848;2023-04-15T11:42:18;21.80;30.80
2439;DHT22;14509;47.992;7.848;2023-04-15T11:44:21;21.50;32.00
2439;DHT22;14509;47.992;7.848;2023-04-15T11:46:28;21.20;31.90
2439;DHT22;14509;47.992;7.848;2023-04-15T11:48:33;21.10;32.50
2439;DHT22;14509;47.992;7.848;2023-04-15T11:50:36;21.00;32.60
2439;DHT22;14509;47.992;7.848;2023-04-15T11:52:40;21.10;32.60
2439;DHT22;14509;47.992;7.848;2023-04-15T11:54:42;21.00;31.40
2439;DHT22;14509;47.992;7.848;2023-04-15T11:56:49;21.10;31.30
2439;DHT22;14509;47.992;7.848;2023-04-15T11:58:52;21.00;31.10
2439;DHT22;14509;47.992;7.848;2023-04-15T12:00:58;21.10;31.20
2439;DHT22;14509;47.992;7.848;2023-04-15T12:03:21;21.20;31.60
2439;DHT22;14509;47.992;7.848;2023-04-15T12:05:25;21.40;31.50
2439;DHT22;14509;47.992;7.848;2023-04-15T12:07:27;21.60;30.90
2439;DHT22;14509;47.992;7.848;2023-04-15T12:09:29;22.00;30.40
2439;DHT22;14509;47.992;7.848;2023-04-15T12:11:34;21.90;30.20
2439;DHT22;14509;47.992;7.848;2023-04-15T12:13:36;21.60;30.00
2439;DHT22;14509;47.992;7.848;2023-04-15T12:15:38;21.80;30.00
2439;DHT22;14509;47.992;7.848;2023-04-15T12:17:41;21.80;30.10
2439;DHT22;14509;47.992;7.848;2023-04-15T12:19:43;21.90;30.10
2439;DHT22;14509;47.992;7.848;2023-04-15T12:21:47;22.00;29.60
2439;DHT22;14509;47.992;7.848;2023-04-15T12:23:50;22.20;29.30
2439;DHT22;14509;47.992;7.848;2023-04-15T12:25:52;22.40;29.10
2439;DHT22;14509;47.992;7.848;2023-04-15T12:27:54;22.50;28.90
2439;DHT22;14509;47.992;7.848;2023-04-15T12:30:03;22.70;28.50
2439;DHT22;14509;47.992;7.848;2023-04-15T12:32:06;22.80;28.60
2439;DHT22;14509;47.992;7.848;2023-04-15T12:34:08;22.80;28.50
2439;DHT22;14509;47.992;7.848;2023-04-15T12:36:10;22.80;28.70
2439;DHT22;14509;47.992;7.848;2023-04-15T12:38:14;23.00;28.60
2439;DHT22;14509;47.992;7.848;2023-04-15T12:40:16;23.10;28.50
2439;DHT22;14509;47.992;7.848;2023-04-15T12:42:18;23.20;28.50
2439;DHT22;14509;47.992;7.848;2023-04-15T12:44:21;23.30;28.80
2439;DHT22;14509;47.992;7.848;2023-04-15T12:46:24;23.40;28.80
2439;DHT22;14509;47.992;7.848;2023-04-15T12:48:26;23.40;28.30
2439;DHT22;14509;47.992;7.848;2023-04-15T12:50:28;23.80;28.20
2439;DHT22;14509;47.992;7.848;2023-04-15T12:52:30;24.10;27.00
2439;DHT22;14509;47.992;7.848;2023-04-15T12:54:33;24.20;27.10
2439;DHT22;14509;47.992;7.848;2023-04-15T12:56:36;24.30;27.10
2439;DHT22;14509;47.992;7.848;2023-04-15T12:58:38;24.50;27.10
2439;DHT22;14509;47.992;7.848;2023-04-15T13:00:40;24.50;27.00
2439;DHT22;14509;47.992;7.848;2023-04-15T13:02:42;24.50;26.40
2439;DHT22;14509;47.992;7.848;2023-04-15T13:04:44;24.50;26.00
2439;DHT22;14509;47.992;7.848;2023-04-15T13:06:46;24.40;26.10
2439;DHT22;14509;47.992;7.848;2023-04-15T13:08:49;24.20;26.50
2439;DHT22;14509;47.992;7.848;2023-04-15T13:10:52;24.10;26.90